Time;durP1;ratioP1;P1;durP2;ratioP2;P2;SDS_P1;SDS_P2;PMS_P1;PMS_P2;Temp;Humidity;BMP_temperature;BMP_pressure;BME280_temperature;BME280_humidity;BME280_pressure;Samples;Min_cycle;Max_cycle;Signal;HPM_P1;HPM_P2
2022/03/29 00:02:16;;;;;;;3.22;0.80;;;3.50;99.90;;;;;;5001906;28;20123;-67
2022/03/29 00:04:43;;;;;;;4.13;1.00;;;3.50;99.90;;;;;;5004715;28;20073;-63
2022/03/29 00:07:10;;;;;;;4.85;1.35;;;3.50;99.90;;;;;;5003072;28;20135;-64
2022/03/29 00:09:37;;;;;;;6.45;1.98;;;3.40;99.90;;;;;;5000612;28;20042;-66
2022/03/29 00:12:04;;;;;;;13.00;1.45;;;3.50;99.90;;;;;;5001913;28;20057;-65
2022/03/29 00:14:30;;;;;;;7.88;2.15;;;3.50;99.90;;;;;;5001788;28;20058;-66
2022/03/29 00:16:57;;;;;;;6.95;1.20;;;3.50;99.90;;;;;;4999879;28;20104;-66
2022/03/29 00:19:24;;;;;;;6.22;1.10;;;3.50;99.90;;;;;;5003548;28;20100;-63
2022/03/29 00:21:52;;;;;;;3.08;1.10;;;3.40;99.90;;;;;;5000149;28;20141;-65
2022/03/29 00:24:19;;;;;;;7.85;1.10;;;3.40;99.90;;;;;;4977198;28;20085;-64
2022/03/29 00:26:46;;;;;;;5.00;1.20;;;3.40;99.90;;;;;;4999928;28;20454;-64
2022/03/29 00:29:13;;;;;;;2.75;1.30;;;3.40;99.90;;;;;;5002903;28;20133;-67
2022/03/29 00:31:40;;;;;;;7.60;1.15;;;3.40;99.90;;;;;;5005788;28;20096;-63
2022/03/29 00:34:07;;;;;;;4.15;1.77;;;3.40;99.90;;;;;;5004480;28;20140;-66
2022/03/29 00:36:34;;;;;;;8.57;1.10;;;3.40;99.90;;;;;;4997747;28;20628;-64
2022/03/29 00:39:01;;;;;;;5.60;1.33;;;3.40;99.90;;;;;;5002691;28;20495;-64
2022/03/29 00:41:28;;;;;;;6.07;1.25;;;3.30;99.90;;;;;;5002684;28;20042;-67
2022/03/29 00:43:55;;;;;;;10.80;2.05;;;3.30;99.90;;;;;;5002552;28;20096;-63
2022/03/29 00:46:21;;;;;;;3.22;1.05;;;3.30;99.90;;;;;;5001596;28;20583;-67
2022/03/29 00:48:48;;;;;;;5.90;1.42;;;3.30;99.90;;;;;;4999138;28;20718;-64
2022/03/29 00:51:16;;;;;;;6.32;1.90;;;3.30;99.90;;;;;;5015421;28;20148;-63
2022/03/29 00:53:43;;;;;;;8.52;1.13;;;3.30;99.90;;;;;;5002976;28;20050;-64
2022/03/29 00:56:10;;;;;;;4.50;1.45;;;3.30;99.90;;;;;;5003454;28;20561;-65
2022/03/29 00:58:37;;;;;;;12.27;1.10;;;3.20;99.90;;;;;;5003585;28;20045;-64
2022/03/29 01:01:05;;;;;;;10.98;1.20;;;3.20;99.90;;;;;;5003108;28;20054;-65
2022/03/29 01:03:33;;;;;;;5.50;1.15;;;3.20;99.90;;;;;;5000357;28;20046;-63
2022/03/29 01:06:00;;;;;;;4.38;1.38;;;3.20;99.90;;;;;;5008724;28;20474;-64
2022/03/29 01:08:27;;;;;;;4.30;1.27;;;3.20;99.90;;;;;;4997922;28;20588;-63
2022/03/29 01:10:54;;;;;;;6.97;1.33;;;3.20;99.90;;;;;;4975930;28;20121;-63
2022/03/29 01:13:21;;;;;;;3.92;1.17;;;3.20;99.90;;;;;;4996421;28;20116;-64
2022/03/29 01:15:50;;;;;;;6.93;1.10;;;3.20;99.90;;;;;;5003688;28;20180;-65
2022/03/29 01:18:23;;;;;;;9.05;1.23;;;3.10;99.90;;;;;;4995867;28;20450;-65
2022/03/29 01:20:57;;;;;;;3.83;1.25;;;3.10;99.90;;;;;;5003691;28;20077;-65
2022/03/29 01:23:27;;;;;;;3.45;0.80;;;3.10;99.90;;;;;;5002138;28;20358;-65
2022/03/29 01:25:54;;;;;;;5.70;1.42;;;3.00;99.90;;;;;;5001240;28;20072;-63
2022/03/29 01:28:22;;;;;;;3.67;1.00;;;3.00;99.90;;;;;;5002282;28;20053;-67
2022/03/29 01:30:52;;;;;;;;;;;2.90;99.90;;;;;;4994372;28;20061;-67
2022/03/29 01:33:19;;;;;;;3.15;0.93;;;2.90;99.90;;;;;;4997826;28;19980;-65
2022/03/29 01:35:47;;;;;;;6.70;1.08;;;2.90;99.90;;;;;;5002109;28;20053;-64
2022/03/29 01:38:14;;;;;;;2.40;1.00;;;2.90;99.90;;;;;;4996979;28;20057;-66
2022/03/29 01:40:41;;;;;;;9.80;1.05;;;2.80;99.90;;;;;;4978923;28;20064;-67
2022/03/29 01:43:08;;;;;;;5.95;1.10;;;2.80;99.90;;;;;;4995714;28;20185;-67
2022/03/29 01:45:35;;;;;;;4.40;0.65;;;2.80;99.90;;;;;;5001552;28;20117;-67
2022/03/29 01:48:02;;;;;;;4.07;1.23;;;2.80;99.90;;;;;;5003658;28;20220;-69
2022/03/29 01:50:29;;;;;;;7.32;1.30;;;2.70;99.90;;;;;;5001507;28;20046;-66
2022/03/29 01:52:56;;;;;;;1.65;0.70;;;2.70;99.90;;;;;;5002722;28;20046;-65
2022/03/29 01:55:23;;;;;;;3.03;0.85;;;2.70;99.90;;;;;;4999586;28;20140;-65
2022/03/29 01:57:51;;;;;;;1.33;0.60;;;2.70;99.90;;;;;;4999201;28;20096;-67
2022/03/29 02:00:38;;;;;;;3.97;0.85;;;2.70;99.90;;;;;;4997650;28;20133;-65
2022/03/29 02:03:07;;;;;;;5.30;0.80;;;2.70;99.90;;;;;;5002089;28;20056;-65
2022/03/29 02:05:35;;;;;;;1.95;0.95;;;2.70;99.90;;;;;;5001668;28;20046;-65
2022/03/29 02:08:02;;;;;;;4.28;1.13;;;2.70;99.90;;;;;;5003824;28;20073;-66
2022/03/29 02:10:30;;;;;;;3.33;0.55;;;2.60;99.90;;;;;;5002035;28;20050;-67
2022/03/29 02:12:57;;;;;;;5.30;0.57;;;2.60;99.90;;;;;;5000921;28;20053;-65
2022/03/29 02:15:24;;;;;;;2.58;0.68;;;2.60;99.90;;;;;;4999312;28;20218;-64
2022/03/29 02:17:52;;;;;;;2.95;1.23;;;2.50;99.90;;;;;;4997324;28;20427;-63
2022/03/29 02:20:21;;;;;;;9.27;1.88;;;2.50;99.90;;;;;;4998442;28;20063;-63
2022/03/29 02:22:48;;;;;;;3.08;0.80;;;2.50;99.90;;;;;;4993408;28;20084;-64
2022/03/29 02:25:16;;;;;;;3.10;0.45;;;2.50;99.90;;;;;;4997976;28;20377;-64
2022/03/29 02:27:44;;;;;;;3.55;0.55;;;2.40;99.90;;;;;;4997647;28;20144;-65
2022/03/29 02:30:15;;;;;;;3.75;1.10;;;2.40;99.90;;;;;;5003234;28;20050;-66
2022/03/29 02:32:43;;;;;;;4.05;0.73;;;2.30;99.90;;;;;;5003866;28;20132;-65
2022/03/29 02:35:10;;;;;;;1.00;0.50;;;2.30;99.90;;;;;;5003402;28;20100;-64
2022/03/29 02:37:37;;;;;;;3.13;0.82;;;2.30;99.90;;;;;;5001835;28;20120;-66
2022/03/29 02:40:06;;;;;;;2.22;0.60;;;2.20;99.90;;;;;;5002605;28;20716;-66
2022/03/29 02:42:46;;;;;;;2.47;0.80;;;2.20;99.90;;;;;;5002122;28;20144;-67
2022/03/29 02:45:18;;;;;;;6.63;0.98;;;2.20;99.90;;;;;;5006900;28;20760;-66
2022/03/29 02:47:47;;;;;;;1.25;0.30;;;2.20;99.90;;;;;;5008601;28;20058;-65
2022/03/29 02:50:15;;;;;;;1.45;0.60;;;2.10;99.90;;;;;;5008520;28;20050;-71
2022/03/29 02:52:50;;;;;;;2.65;0.80;;;2.10;99.90;;;;;;5009819;28;20054;-63
2022/03/29 02:55:18;;;;;;;2.38;0.70;;;2.10;99.90;;;;;;5011728;28;20818;-66
2022/03/29 02:57:46;;;;;;;27.55;3.20;;;2.00;99.90;;;;;;5007262;28;20077;-64
2022/03/29 03:00:17;;;;;;;5.13;1.33;;;2.10;99.90;;;;;;5007889;28;20157;-63
2022/03/29 03:02:51;;;;;;;5.63;0.73;;;2.00;99.90;;;;;;5007863;28;20141;-64
2022/03/29 03:05:24;;;;;;;4.78;0.95;;;2.00;99.90;;;;;;5007057;28;20116;-67
2022/03/29 03:07:51;;;;;;;4.55;0.63;;;2.00;99.90;;;;;;5007634;28;20056;-68
2022/03/29 03:10:18;;;;;;;1.50;0.40;;;2.00;99.90;;;;;;5008596;28;20757;-64
2022/03/29 03:12:47;;;;;;;1.33;0.50;;;2.00;99.90;;;;;;5021160;28;20076;-63
2022/03/29 03:15:18;;;;;;;4.18;0.75;;;2.00;99.90;;;;;;5007648;28;20446;-63
2022/03/29 03:17:45;;;;;;;7.22;0.77;;;2.00;99.90;;;;;;5005143;28;20565;-63
2022/03/29 03:20:12;;;;;;;3.17;0.57;;;2.00;99.90;;;;;;5006576;28;20164;-63
2022/03/29 03:22:40;;;;;;;2.10;1.35;;;2.00;99.90;;;;;;5009804;28;20375;-63
2022/03/29 03:25:08;;;;;;;3.85;1.17;;;2.00;99.90;;;;;;5008313;28;20049;-65
2022/03/29 03:27:35;;;;;;;4.18;0.65;;;2.00;99.90;;;;;;5007294;28;20045;-64
2022/03/29 03:30:05;;;;;;;7.60;1.35;;;1.90;99.90;;;;;;5008874;28;20133;-65
2022/03/29 03:32:32;;;;;;;;;;;1.90;99.90;;;;;;5009141;28;20062;-65
2022/03/29 03:35:01;;;;;;;4.20;0.85;;;1.90;99.90;;;;;;5008881;28;19960;-68
2022/03/29 03:37:28;;;;;;;10.43;1.05;;;1.90;99.90;;;;;;5016858;28;20105;-66
2022/03/29 03:39:55;;;;;;;14.73;1.30;;;1.90;99.90;;;;;;5000349;28;20137;-70
2022/03/29 03:42:22;;;;;;;2.22;0.50;;;1.90;99.90;;;;;;5008650;28;20037;-63
2022/03/29 03:44:49;;;;;;;4.50;2.80;;;1.90;99.90;;;;;;5009131;28;20072;-64
2022/03/29 03:47:16;;;;;;;3.70;1.23;;;1.80;99.90;;;;;;5007457;28;20444;-67
2022/03/29 03:49:43;;;;;;;14.18;1.30;;;1.80;99.90;;;;;;5006604;28;20046;-64
2022/03/29 03:52:10;;;;;;;8.02;1.52;;;1.80;99.90;;;;;;5006896;28;20153;-63
2022/03/29 03:54:39;;;;;;;1.95;0.85;;;1.80;99.90;;;;;;5006583;28;20137;-64
2022/03/29 03:57:06;;;;;;;2.13;0.80;;;1.80;99.90;;;;;;4998090;28;20066;-70
2022/03/29 03:59:33;;;;;;;8.02;1.08;;;1.80;99.90;;;;;;5002213;28;20074;-66
2022/03/29 04:02:00;;;;;;;5.90;1.05;;;1.80;99.90;;;;;;4998066;28;20053;-64
2022/03/29 04:04:27;;;;;;;3.95;1.65;;;1.70;99.90;;;;;;5003584;28;20412;-66
2022/03/29 04:06:54;;;;;;;2.88;0.80;;;1.70;99.90;;;;;;5003726;28;20108;-66
2022/03/29 04:09:21;;;;;;;3.00;0.82;;;1.60;99.90;;;;;;5001989;28;20104;-67
2022/03/29 04:11:48;;;;;;;1.95;1.00;;;1.70;99.90;;;;;;5002160;28;20088;-63
2022/03/29 04:14:16;;;;;;;3.67;1.30;;;1.70;99.90;;;;;;5002998;28;20498;-64
2022/03/29 04:16:43;;;;;;;5.03;0.73;;;1.60;99.90;;;;;;5004843;28;20046;-64
2022/03/29 04:19:10;;;;;;;4.22;1.10;;;1.70;99.90;;;;;;5002551;28;20411;-68
2022/03/29 04:21:37;;;;;;;7.82;1.23;;;1.60;99.90;;;;;;5002230;28;20137;-63
2022/03/29 04:24:05;;;;;;;6.70;1.23;;;1.60;99.90;;;;;;5003402;28;20105;-65
2022/03/29 04:26:32;;;;;;;3.33;1.55;;;1.60;99.90;;;;;;5004544;28;20046;-67
2022/03/29 04:28:59;;;;;;;2.47;1.00;;;1.60;99.90;;;;;;5004445;28;20038;-65
2022/03/29 04:31:26;;;;;;;5.10;0.95;;;1.60;99.90;;;;;;5004843;28;20428;-66
2022/03/29 04:33:53;;;;;;;3.42;1.58;;;1.60;99.90;;;;;;5002877;28;20069;-63
2022/03/29 04:36:20;;;;;;;2.65;1.42;;;1.60;99.90;;;;;;5005512;28;20384;-66
2022/03/29 04:38:47;;;;;;;9.48;1.73;;;1.60;99.90;;;;;;5004568;28;20052;-64
2022/03/29 04:41:13;;;;;;;3.20;0.82;;;1.60;99.90;;;;;;5006519;28;20073;-67
2022/03/29 04:43:40;;;;;;;5.00;1.08;;;1.60;99.90;;;;;;4998179;28;20861;-66
2022/03/29 04:46:07;;;;;;;3.97;1.33;;;1.60;99.90;;;;;;5005009;28;20053;-64
2022/03/29 04:48:35;;;;;;;6.30;1.67;;;1.60;99.90;;;;;;5003209;28;20057;-64
2022/03/29 04:51:02;;;;;;;3.17;0.95;;;1.60;99.90;;;;;;5005972;28;20762;-66
2022/03/29 04:53:29;;;;;;;11.82;1.25;;;1.70;99.90;;;;;;4998524;28;20054;-64
2022/03/29 04:55:56;;;;;;;12.73;1.33;;;1.70;99.90;;;;;;5003177;28;20050;-64
2022/03/29 04:58:24;;;;;;;4.13;1.10;;;1.70;99.90;;;;;;5004953;28;20108;-64
2022/03/29 05:00:52;;;;;;;3.40;1.48;;;1.70;99.90;;;;;;4979803;28;20050;-65
2022/03/29 05:03:19;;;;;;;1.45;0.52;;;1.70;99.90;;;;;;5005005;28;20065;-64
2022/03/29 05:05:46;;;;;;;6.07;1.33;;;1.70;99.90;;;;;;5006783;28;20060;-64
2022/03/29 05:08:13;;;;;;;2.28;0.80;;;1.70;99.90;;;;;;4990114;28;20067;-67
2022/03/29 05:10:40;;;;;;;4.13;1.40;;;1.70;99.90;;;;;;4991941;28;20213;-66
2022/03/29 05:13:09;;;;;;;3.47;1.10;;;1.70;99.90;;;;;;4991742;28;20054;-64
2022/03/29 05:15:36;;;;;;;4.97;0.95;;;1.70;99.90;;;;;;4998138;28;20058;-63
2022/03/29 05:18:03;;;;;;;2.88;1.10;;;1.70;99.90;;;;;;4996161;28;20052;-67
2022/03/29 05:20:31;;;;;;;4.65;1.02;;;1.70;99.90;;;;;;5000084;28;20140;-65
2022/03/29 05:22:58;;;;;;;3.88;1.17;;;1.70;99.90;;;;;;4995072;28;20740;-66
2022/03/29 05:25:26;;;;;;;7.95;1.52;;;1.70;99.90;;;;;;5001179;28;20057;-65
2022/03/29 05:27:54;;;;;;;4.63;0.93;;;1.70;99.90;;;;;;4997445;28;20050;-66
2022/03/29 05:30:21;;;;;;;23.58;3.50;;;1.60;99.90;;;;;;4996774;28;20076;-64
2022/03/29 05:32:51;;;;;;;7.45;1.23;;;1.70;99.90;;;;;;5000088;28;20045;-63
2022/03/29 05:35:18;;;;;;;8.15;0.80;;;1.60;99.90;;;;;;4995719;28;20046;-67
2022/03/29 05:37:45;;;;;;;7.93;1.10;;;1.60;99.90;;;;;;4992157;28;20050;-65
2022/03/29 05:40:12;;;;;;;11.13;2.22;;;1.60;99.90;;;;;;4998271;28;20441;-64
2022/03/29 05:42:41;;;;;;;18.80;3.03;;;1.60;99.90;;;;;;4997169;28;20054;-72
2022/03/29 05:45:10;;;;;;;6.90;1.15;;;1.60;99.90;;;;;;4997166;28;20136;-65
2022/03/29 05:50:23;;;;;;;5.07;1.40;;;1.60;99.90;;;;;;4995029;28;20045;-64
2022/03/29 05:52:50;;;;;;;7.10;1.38;;;1.60;99.90;;;;;;4994647;28;20046;-64
2022/03/29 05:55:18;;;;;;;7.95;1.40;;;1.60;99.90;;;;;;4993732;28;20156;-66
2022/03/29 05:57:48;;;;;;;3.70;0.98;;;1.60;99.90;;;;;;4994795;28;20046;-64
2022/03/29 06:00:17;;;;;;;11.63;2.13;;;1.60;99.90;;;;;;4991856;28;20053;-64
2022/03/29 06:02:44;;;;;;;4.55;1.40;;;1.60;99.90;;;;;;4992177;28;20056;-63
2022/03/29 06:05:11;;;;;;;3.35;1.13;;;1.60;99.90;;;;;;4997536;28;20153;-62
2022/03/29 06:07:38;;;;;;;6.22;1.23;;;1.60;99.90;;;;;;4994578;28;20220;-63
2022/03/29 06:10:06;;;;;;;10.52;1.52;;;1.60;99.90;;;;;;4996981;28;20459;-63
2022/03/29 06:12:34;;;;;;;1.48;0.65;;;1.60;99.90;;;;;;4994500;28;20051;-65
2022/03/29 06:15:03;;;;;;;5.45;1.00;;;1.60;99.90;;;;;;4992600;28;20640;-64
2022/03/29 06:17:30;;;;;;;9.75;1.70;;;1.60;99.90;;;;;;4992843;28;20109;-71
2022/03/29 06:19:57;;;;;;;5.82;0.68;;;1.70;99.90;;;;;;4991336;28;20140;-65
2022/03/29 06:22:24;;;;;;;7.60;1.80;;;1.70;99.90;;;;;;4993168;28;20133;-63
2022/03/29 06:24:51;;;;;;;3.10;1.00;;;1.70;99.90;;;;;;5000623;28;20144;-63
2022/03/29 06:27:18;;;;;;;6.10;1.98;;;1.80;99.90;;;;;;4987713;28;20068;-66
2022/03/29 06:29:45;;;;;;;6.53;0.95;;;1.80;99.90;;;;;;4997415;28;20165;-64
2022/03/29 06:32:18;;;;;;;5.85;2.25;;;1.90;99.90;;;;;;4998379;28;20077;-65
2022/03/29 06:34:45;;;;;;;13.98;2.20;;;1.80;99.90;;;;;;4979982;28;20052;-64
2022/03/29 06:37:12;;;;;;;7.20;1.63;;;1.80;99.90;;;;;;4999537;28;20062;-64
2022/03/29 06:39:39;;;;;;;4.47;1.60;;;1.90;99.90;;;;;;4999899;28;20187;-68
2022/03/29 06:42:06;;;;;;;11.25;1.88;;;2.00;99.90;;;;;;4999879;28;20108;-64
2022/03/29 06:44:34;;;;;;;6.95;1.63;;;2.10;99.90;;;;;;5001531;28;20057;-64
2022/03/29 06:47:02;;;;;;;6.78;3.03;;;2.10;99.90;;;;;;4999065;28;20053;-65
2022/03/29 06:49:29;;;;;;;9.07;1.40;;;2.10;99.90;;;;;;5002995;28;20133;-66
2022/03/29 06:51:56;;;;;;;8.43;1.10;;;2.20;99.90;;;;;;4998760;28;20423;-63
2022/03/29 06:54:23;;;;;;;10.18;2.40;;;2.20;99.90;;;;;;4998499;28;20240;-65
2022/03/29 06:56:50;;;;;;;11.85;1.80;;;2.10;99.90;;;;;;5001157;28;20192;-63
2022/03/29 06:59:17;;;;;;;5.18;0.90;;;2.00;99.90;;;;;;4999986;28;20543;-63
2022/03/29 07:01:44;;;;;;;15.80;2.00;;;2.00;99.90;;;;;;5002926;28;20049;-65
2022/03/29 07:04:11;;;;;;;4.55;1.60;;;2.00;99.90;;;;;;5002915;28;20049;-64
2022/03/29 07:06:43;;;;;;;1.27;0.60;;;2.00;99.90;;;;;;5001528;28;20058;-71
2022/03/29 07:12:06;;;;;;;3.75;0.70;;;2.00;99.90;;;;;;4999937;28;20072;-65
2022/03/29 07:14:33;;;;;;;5.13;1.13;;;2.00;99.90;;;;;;5002215;28;20138;-64
2022/03/29 07:17:00;;;;;;;5.18;1.42;;;2.00;99.90;;;;;;5001264;28;20639;-70
2022/03/29 07:19:27;;;;;;;3.67;1.30;;;2.10;99.90;;;;;;5001731;28;20081;-65
2022/03/29 07:21:55;;;;;;;4.47;1.10;;;2.20;99.90;;;;;;4999294;28;20096;-65
2022/03/29 07:24:22;;;;;;;10.45;1.10;;;2.30;99.90;;;;;;5001490;28;20160;-63
2022/03/29 07:26:49;;;;;;;6.78;1.23;;;2.30;99.90;;;;;;4992782;28;20099;-63
2022/03/29 07:29:17;;;;;;;5.90;0.95;;;2.20;99.90;;;;;;5002107;28;20050;-64
2022/03/29 07:31:45;;;;;;;4.18;0.90;;;2.40;99.90;;;;;;5002107;28;20111;-63
2022/03/29 07:34:12;;;;;;;1.33;0.60;;;2.30;99.90;;;;;;5006149;28;20100;-64
2022/03/29 07:36:40;;;;;;;3.45;0.93;;;2.40;99.90;;;;;;5006111;28;20060;-64
2022/03/29 07:39:07;;;;;;;4.65;1.58;;;2.40;99.90;;;;;;5002453;28;20061;-64
2022/03/29 07:41:34;;;;;;;2.00;0.73;;;2.40;99.90;;;;;;4995884;28;20141;-64
2022/03/29 07:44:02;;;;;;;2.88;0.98;;;2.30;99.90;;;;;;5006194;28;20646;-67
2022/03/29 07:46:29;;;;;;;4.00;1.10;;;2.30;99.90;;;;;;5005950;28;20050;-67
2022/03/29 07:48:56;;;;;;;3.83;1.27;;;2.20;99.90;;;;;;5004477;28;20068;-64
2022/03/29 07:51:43;;;;;;;9.02;1.33;;;2.30;99.90;;;;;;5002842;28;20141;-63
2022/03/29 07:54:10;;;;;;;4.40;1.38;;;2.30;99.90;;;;;;5005967;28;20065;-64
2022/03/29 07:56:37;;;;;;;4.05;0.93;;;2.40;99.90;;;;;;5005260;28;20530;-64
2022/03/29 07:59:04;;;;;;;11.07;1.60;;;2.40;99.90;;;;;;5011660;28;20717;-65
2022/03/29 08:01:31;;;;;;;3.88;0.73;;;2.30;99.90;;;;;;5010856;28;20057;-62
2022/03/29 08:03:58;;;;;;;4.18;1.05;;;2.30;99.90;;;;;;5005741;28;20086;-62
2022/03/29 08:06:25;;;;;;;4.82;1.13;;;2.30;99.90;;;;;;5010323;28;20152;-63
2022/03/29 08:08:53;;;;;;;7.00;0.90;;;2.30;99.90;;;;;;4995771;28;20046;-62
2022/03/29 08:11:22;;;;;;;7.25;1.17;;;2.30;99.90;;;;;;5002346;28;20164;-63
2022/03/29 08:13:49;;;;;;;4.53;0.82;;;2.30;99.90;;;;;;4999771;28;20127;-63
2022/03/29 08:16:16;;;;;;;6.38;1.75;;;2.30;99.90;;;;;;5007433;28;20046;-64
2022/03/29 08:18:43;;;;;;;1.50;0.88;;;2.30;99.90;;;;;;5003853;28;20205;-61
2022/03/29 08:23:56;;;;;;;4.68;1.75;;;2.20;99.90;;;;;;5003042;28;20483;-64
2022/03/29 08:26:23;;;;;;;7.85;1.10;;;2.10;99.90;;;;;;5013045;28;20569;-64
2022/03/29 08:28:50;;;;;;;4.30;1.60;;;2.20;99.90;;;;;;5002790;28;20415;-71
2022/03/29 08:31:18;;;;;;;12.20;1.45;;;2.30;99.90;;;;;;4993700;28;20188;-67
2022/03/29 08:33:45;;;;;;;4.00;1.08;;;2.20;99.90;;;;;;5004350;28;20052;-61
2022/03/29 08:36:12;;;;;;;2.35;1.33;;;2.10;99.90;;;;;;5004921;28;20045;-62
2022/03/29 08:38:39;;;;;;;6.63;1.52;;;2.20;99.90;;;;;;5000798;28;20420;-61
2022/03/29 08:41:06;;;;;;;2.35;0.98;;;2.40;99.90;;;;;;5001083;28;20590;-62
2022/03/29 08:43:33;;;;;;;18.92;3.88;;;2.50;99.90;;;;;;4998982;28;20137;-65
2022/03/29 08:46:00;;;;;;;6.57;2.13;;;2.40;99.90;;;;;;4998541;28;20084;-62
2022/03/29 08:48:29;;;;;;;12.35;3.42;;;2.30;99.90;;;;;;4991679;28;20123;-64
2022/03/29 08:50:59;;;;;;;5.28;0.82;;;2.20;99.90;;;;;;5002964;28;20049;-62
2022/03/29 08:53:48;;;;;;;5.77;1.33;;;2.20;99.90;;;;;;4997043;28;20078;-61
2022/03/29 08:56:17;;;;;;;2.22;1.02;;;2.10;99.90;;;;;;5002902;28;20061;-61
2022/03/29 08:58:44;;;;;;;5.35;1.75;;;2.10;99.90;;;;;;5004378;28;20061;-62
2022/03/29 09:01:10;;;;;;;2.72;0.77;;;2.10;99.90;;;;;;4996299;28;20085;-65
2022/03/29 09:03:38;;;;;;;2.40;0.50;;;2.20;99.90;;;;;;4999107;28;20050;-64
2022/03/29 09:06:09;;;;;;;5.43;1.00;;;2.20;99.90;;;;;;5006159;28;20220;-69
2022/03/29 09:08:45;;;;;;;2.08;0.55;;;2.10;99.90;;;;;;5004386;28;20147;-65
2022/03/29 09:11:13;;;;;;;4.68;0.90;;;2.20;99.90;;;;;;4997276;28;20775;-64
2022/03/29 09:13:40;;;;;;;4.30;0.80;;;2.30;99.90;;;;;;4999891;28;20100;-62
2022/03/29 09:16:25;;;;;;;2.55;0.90;;;2.30;99.90;;;;;;5001611;28;20050;-62
2022/03/29 09:18:56;;;;;;;5.30;1.73;;;2.40;99.90;;;;;;4990508;28;20152;-64
2022/03/29 09:21:24;;;;;;;5.53;0.80;;;2.40;99.90;;;;;;5004050;28;20814;-67
2022/03/29 09:24:16;;;;;;;10.20;1.65;;;2.50;99.90;;;;;;5001107;28;20807;-61
2022/03/29 09:26:51;;;;;;;14.13;1.35;;;2.40;99.90;;;;;;5003492;28;20050;-66
2022/03/29 09:29:25;;;;;;;5.25;1.02;;;2.50;99.90;;;;;;5004100;28;20148;-67
2022/03/29 09:32:03;;;;;;;4.25;1.20;;;2.60;99.90;;;;;;4992673;28;20152;-64
2022/03/29 09:34:30;;;;;;;3.00;1.10;;;2.70;99.90;;;;;;4999968;28;20073;-63
2022/03/29 09:36:57;;;;;;;5.05;0.90;;;2.80;99.90;;;;;;5012041;28;20520;-63
2022/03/29 09:39:40;;;;;;;3.35;1.63;;;2.90;99.90;;;;;;4990844;28;20078;-64
2022/03/29 09:42:12;;;;;;;8.15;1.40;;;3.10;99.90;;;;;;4993417;28;20054;-61
2022/03/29 09:44:53;;;;;;;8.15;1.60;;;2.80;99.90;;;;;;4993743;28;20491;-63
2022/03/29 09:47:21;;;;;;;4.32;0.70;;;2.60;99.90;;;;;;5004082;28;20094;-63
2022/03/29 09:50:06;;;;;;;5.25;1.15;;;2.80;99.90;;;;;;4997833;28;20393;-62
2022/03/29 09:52:39;;;;;;;6.72;1.45;;;2.80;99.90;;;;;;5004005;28;20482;-62
2022/03/29 09:55:21;;;;;;;9.75;1.08;;;2.80;99.90;;;;;;5001844;28;20049;-64
2022/03/29 09:57:50;;;;;;;6.70;1.30;;;2.60;99.90;;;;;;4994267;28;20129;-61
2022/03/29 10:00:25;;;;;;;9.45;1.40;;;2.80;99.90;;;;;;5000560;28;20849;-65
2022/03/29 10:02:52;;;;;;;7.90;2.42;;;2.80;99.90;;;;;;5003243;28;20041;-64
2022/03/29 10:05:19;;;;;;;12.57;1.55;;;2.80;99.90;;;;;;4997014;28;20053;-62
2022/03/29 10:09:25;;;;;;;5.13;1.05;;;2.90;99.90;;;;;;5001154;28;20057;-65
2022/03/29 10:10:43;;;;;;;3.50;1.13;;;3.10;99.90;;;;;;4999162;28;20056;-67
2022/03/29 10:13:12;;;;;;;19.92;2.58;;;3.20;99.90;;;;;;4999486;28;20593;-62
2022/03/29 10:15:41;;;;;;;3.80;0.90;;;3.20;99.90;;;;;;5000005;28;20434;-62
2022/03/29 10:18:08;;;;;;;4.22;0.93;;;3.10;99.90;;;;;;4989613;28;20404;-64
2022/03/29 10:20:36;;;;;;;3.72;0.98;;;3.10;99.90;;;;;;4997565;28;20049;-64
2022/03/29 10:23:04;;;;;;;3.20;0.60;;;3.10;99.90;;;;;;5007301;28;20679;-64
2022/03/29 10:25:32;;;;;;;3.63;1.20;;;2.90;99.90;;;;;;4996335;28;20053;-62
2022/03/29 10:28:01;;;;;;;8.45;2.97;;;2.70;99.90;;;;;;5003197;28;20069;-63
2022/03/29 10:30:35;;;;;;;1.92;0.85;;;2.80;99.90;;;;;;5001628;28;20069;-63
2022/03/29 10:33:24;;;;;;;1.70;0.77;;;2.80;99.90;;;;;;5000343;28;21152;-62
2022/03/29 10:36:05;;;;;;;11.57;1.60;;;2.90;99.90;;;;;;4987798;28;20057;-65
2022/03/29 10:38:47;;;;;;;1.92;1.23;;;2.80;99.90;;;;;;4985169;28;20069;-69
2022/03/29 10:41:29;;;;;;;6.63;1.40;;;2.90;99.90;;;;;;4983568;28;20050;-66
2022/03/29 10:44:01;;;;;;;12.90;1.20;;;2.90;99.90;;;;;;4991063;28;20411;-66
2022/03/29 10:46:37;;;;;;;3.50;0.85;;;2.70;99.90;;;;;;4988882;28;20381;-65
2022/03/29 10:49:34;;;;;;;2.85;1.20;;;2.70;99.90;;;;;;4993683;28;20504;-63
2022/03/29 10:52:04;;;;;;;9.65;1.60;;;2.80;99.90;;;;;;4993761;28;20046;-63
2022/03/29 10:54:31;;;;;;;4.68;0.95;;;2.80;99.90;;;;;;4992527;28;20243;-63
2022/03/29 10:57:16;;;;;;;12.05;1.92;;;2.90;99.90;;;;;;4995811;28;20108;-70
2022/03/29 10:59:43;;;;;;;10.27;2.95;;;2.90;99.90;;;;;;4995491;28;20078;-65
2022/03/29 11:02:20;;;;;;;7.53;1.35;;;2.90;99.90;;;;;;4990294;28;20197;-65
2022/03/29 11:05:05;;;;;;;3.70;1.40;;;3.00;99.90;;;;;;4992444;28;20174;-62
2022/03/29 11:07:35;;;;;;;1.77;0.60;;;2.90;99.90;;;;;;5001534;28;20124;-65
2022/03/29 11:10:11;;;;;;;6.18;1.20;;;2.70;99.90;;;;;;4988938;28;20047;-65
2022/03/29 11:12:46;;;;;;;3.63;1.38;;;2.80;99.90;;;;;;4990271;28;20045;-70
2022/03/29 11:15:33;;;;;;;1.70;0.80;;;2.90;99.90;;;;;;4993310;28;20188;-64
2022/03/29 11:18:01;;;;;;;3.85;0.80;;;3.00;99.90;;;;;;4993111;28;20054;-65
2022/03/29 11:20:32;;;;;;;3.17;0.90;;;2.90;99.90;;;;;;4998066;28;20052;-65
2022/03/29 11:23:01;;;;;;;4.43;1.38;;;2.90;99.90;;;;;;4993638;28;20049;-66
2022/03/29 11:25:30;;;;;;;7.97;1.10;;;3.00;99.90;;;;;;4992339;28;20409;-64
2022/03/29 11:28:15;;;;;;;4.20;1.20;;;2.90;99.90;;;;;;5000301;28;20431;-64
2022/03/29 11:30:43;;;;;;;4.50;1.10;;;2.60;99.90;;;;;;4971547;28;20070;-65
2022/03/29 11:33:11;;;;;;;7.65;1.55;;;2.70;99.90;;;;;;4985993;28;20161;-62
2022/03/29 11:35:39;;;;;;;7.68;1.65;;;2.80;99.90;;;;;;4998326;28;20224;-65
2022/03/29 11:38:10;;;;;;;2.75;1.23;;;2.80;99.90;;;;;;4991584;28;20061;-62
2022/03/29 11:40:38;;;;;;;5.13;1.77;;;2.90;99.90;;;;;;4988888;28;20164;-61
2022/03/29 11:43:10;;;;;;;7.38;3.08;;;3.10;99.90;;;;;;5002415;28;20068;-64
2022/03/29 11:45:48;;;;;;;3.67;0.70;;;3.30;99.90;;;;;;4998341;28;20215;-63
2022/03/29 11:48:21;;;;;;;2.58;0.80;;;3.30;99.90;;;;;;4996881;28;20056;-61
2022/03/29 11:50:56;;;;;;;3.95;1.08;;;3.20;99.90;;;;;;4995758;28;20096;-64
2022/03/29 11:53:27;;;;;;;4.57;1.70;;;3.40;99.90;;;;;;5001143;28;20353;-62
2022/03/29 11:55:57;;;;;;;;;;;3.40;99.90;;;;;;5001193;28;20053;-62
2022/03/29 11:58:24;;;;;;;3.30;1.00;;;3.20;99.90;;;;;;4994058;28;19925;-62
2022/03/29 12:00:50;;;;;;;1.52;0.77;;;3.10;99.90;;;;;;4999340;28;20114;-62
2022/03/29 12:03:28;;;;;;;1.70;0.80;;;3.20;99.90;;;;;;4994356;28;20046;-63
2022/03/29 12:06:26;;;;;;;0.93;0.68;;;3.20;99.90;;;;;;5001415;28;20054;-61
2022/03/29 12:09:02;;;;;;;1.13;0.70;;;3.40;99.90;;;;;;4996758;28;20136;-64
2022/03/29 12:11:35;;;;;;;4.28;1.00;;;3.20;99.90;;;;;;5008103;28;20780;-63
2022/03/29 12:14:17;;;;;;;3.95;1.40;;;3.20;99.90;;;;;;4991431;28;20733;-61
2022/03/29 12:16:46;;;;;;;1.20;0.90;;;3.50;99.90;;;;;;4996235;28;20050;-64
2022/03/29 12:19:19;;;;;;;3.63;1.80;;;3.40;99.90;;;;;;4998811;28;20062;-64
2022/03/29 12:21:48;;;;;;;4.47;0.88;;;3.10;99.90;;;;;;5002589;28;20081;-64
2022/03/29 12:24:23;;;;;;;5.47;1.30;;;3.00;99.90;;;;;;5004212;28;20466;-61
2022/03/29 12:26:54;;;;;;;3.33;0.80;;;3.10;99.90;;;;;;5004396;28;20107;-63
2022/03/29 12:29:25;;;;;;;1.80;0.70;;;3.20;99.90;;;;;;4998031;28;20081;-62
2022/03/29 12:31:53;;;;;;;4.90;0.68;;;3.20;99.90;;;;;;4999907;28;20136;-63
2022/03/29 12:34:28;;;;;;;2.13;1.02;;;3.10;99.90;;;;;;5003536;28;20800;-63
2022/03/29 12:36:59;;;;;;;1.65;0.73;;;3.10;99.90;;;;;;5000270;28;20088;-63
2022/03/29 12:39:38;;;;;;;2.50;0.60;;;3.10;99.90;;;;;;5001430;28;20052;-63
2022/03/29 12:42:10;;;;;;;2.20;0.50;;;3.00;99.90;;;;;;5001710;28;20049;-67
2022/03/29 12:44:44;;;;;;;5.53;1.02;;;2.90;99.90;;;;;;5001175;28;20128;-62
2022/03/29 12:47:11;;;;;;;2.92;1.17;;;3.00;99.90;;;;;;4997710;28;20057;-62
2022/03/29 12:49:40;;;;;;;7.95;1.05;;;3.10;99.90;;;;;;5001921;28;20052;-62
2022/03/29 12:52:10;;;;;;;5.47;0.90;;;3.10;99.90;;;;;;5004910;28;20125;-64
2022/03/29 12:54:40;;;;;;;3.70;0.80;;;3.00;99.90;;;;;;5000714;28;20493;-62
2022/03/29 12:57:10;;;;;;;2.63;0.63;;;3.00;99.90;;;;;;4999271;28;20073;-67
2022/03/29 12:59:42;;;;;;;3.70;0.70;;;2.80;99.90;;;;;;4999085;28;20401;-62
2022/03/29 13:02:15;;;;;;;9.75;1.85;;;2.60;99.90;;;;;;5004221;28;20045;-61
2022/03/29 13:04:45;;;;;;;4.78;0.90;;;2.60;99.90;;;;;;5001055;28;20042;-61
2022/03/29 13:07:32;;;;;;;0.57;0.50;;;2.50;99.90;;;;;;5004778;28;20132;-63
2022/03/29 13:10:05;;;;;;;5.95;1.20;;;2.50;99.90;;;;;;4995138;28;20053;-65
2022/03/29 13:12:51;;;;;;;8.52;1.45;;;2.50;99.90;;;;;;5000428;28;20072;-63
2022/03/29 13:15:36;;;;;;;5.78;0.85;;;2.50;99.90;;;;;;5006798;28;20156;-62
2022/03/29 13:18:05;;;;;;;5.07;1.33;;;2.50;99.90;;;;;;4995789;28;20075;-63
2022/03/29 13:20:36;;;;;;;2.47;1.13;;;2.50;99.90;;;;;;5003895;28;20066;-65